Time;durP1;ratioP1;P1;durP2;ratioP2;P2;SDS_P1;SDS_P2;PMS_P1;PMS_P2;Temp;Humidity;BMP_temperature;BMP_pressure;BME280_temperature;BME280_humidity;BME280_pressure;Samples;Min_cycle;Max_cycle;Signal;HPM_P1;HPM_P2
2022/04/07 00:01:53;;;;;;;94.60;67.10;;;;;;;7.19;100.00;97289.39;105241;1271;62168;-72
2022/04/07 00:04:21;;;;;;;102.40;68.90;;;;;;;7.21;100.00;97285.23;105248;1268;62182;-72
2022/04/07 00:06:47;;;;;;;99.40;69.00;;;;;;;7.21;100.00;97284.65;105212;1271;77033;-71
2022/04/07 00:09:14;;;;;;;97.80;68.30;;;;;;;7.22;100.00;97281.23;105244;1268;69316;-71
2022/04/07 00:11:40;;;;;;;100.30;68.90;;;;;;;7.23;100.00;97282.77;105229;1268;62171;-72
2022/04/07 00:14:07;;;;;;;100.10;66.90;;;;;;;7.24;100.00;97282.52;105196;1271;61950;-72
2022/04/07 00:16:34;;;;;;;104.40;69.20;;;;;;;7.24;100.00;97277.35;105279;1268;62071;-71
2022/04/07 00:19:01;;;;;;;96.30;66.60;;;;;;;7.27;100.00;97277.31;105206;1270;62049;-72
2022/04/07 00:21:35;;;;;;;92.10;64.00;;;;;;;7.30;100.00;97273.02;105266;1268;69135;-71
2022/04/07 00:24:03;;;;;;;88.40;61.60;;;;;;;7.32;100.00;97273.39;105211;1268;73359;-72
2022/04/07 00:26:30;;;;;;;85.50;64.10;;;;;;;7.33;100.00;97272.18;105355;1268;62103;-71
2022/04/07 00:28:57;;;;;;;85.30;66.20;;;;;;;7.34;100.00;97271.61;105268;1268;62099;-72
2022/04/07 00:31:25;;;;;;;91.60;74.40;;;;;;;7.35;100.00;97270.98;105257;1268;76035;-71
2022/04/07 00:33:52;;;;;;;93.60;71.10;;;;;;;7.38;100.00;97274.13;105388;1268;69783;-71
2022/04/07 00:36:19;;;;;;;85.90;67.70;;;;;;;7.40;100.00;97274.85;105230;1268;74199;-71
2022/04/07 00:38:45;;;;;;;76.70;60.30;;;;;;;7.40;100.00;97280.99;105186;1268;62393;-71
2022/04/07 00:41:12;;;;;;;74.50;59.80;;;;;;;7.41;100.00;97281.47;105269;1268;62402;-71
2022/04/07 00:43:39;;;;;;;80.80;63.80;;;;;;;7.41;100.00;97284.63;105298;1268;76174;-71
2022/04/07 00:46:05;;;;;;;82.90;70.00;;;;;;;7.41;100.00;97282.66;105242;1268;69230;-72
2022/04/07 00:48:35;;;;;;;91.00;76.40;;;;;;;7.43;100.00;97280.23;105228;1271;74526;-71
2022/04/07 00:51:03;;;;;;;97.00;81.20;;;;;;;7.43;100.00;97276.69;105267;1268;62174;-71
2022/04/07 00:53:30;;;;;;;90.30;78.50;;;;;;;7.42;100.00;97277.48;105335;1268;62137;-71
2022/04/07 00:56:00;;;;;;;93.60;78.20;;;;;;;7.40;100.00;97276.27;104870;1268;496433;-71
2022/04/07 00:58:29;;;;;;;89.40;72.40;;;;;;;7.38;100.00;97271.29;105254;1268;69469;-71
2022/04/07 01:00:57;;;;;;;90.70;73.80;;;;;;;7.38;100.00;97276.79;105299;1268;73398;-71
2022/04/07 01:03:24;;;;;;;92.10;76.60;;;;;;;7.36;100.00;97278.18;105246;1268;62072;-72
2022/04/07 01:05:51;;;;;;;87.50;72.70;;;;;;;7.35;100.00;97281.09;105422;1268;62098;-71
2022/04/07 01:08:18;;;;;;;86.10;70.20;;;;;;;7.35;100.00;97280.88;105268;1268;75883;-71
2022/04/07 01:10:45;;;;;;;95.70;79.80;;;;;;;7.35;100.00;97288.30;105014;1268;62027;-71
2022/04/07 01:13:13;;;;;;;90.00;76.80;;;;;;;7.35;100.00;97281.11;105253;1268;72196;-71
2022/04/07 01:15:39;;;;;;;85.40;67.70;;;;;;;7.35;100.00;97280.02;105235;1268;62096;-71
2022/04/07 01:18:06;;;;;;;76.30;60.10;;;;;;;7.36;100.00;97277.98;105250;1271;62026;-70
2022/04/07 01:20:32;;;;;;;80.60;64.60;;;;;;;7.38;100.00;97282.73;105283;1268;62492;-71
2022/04/07 01:22:59;;;;;;;86.50;68.00;;;;;;;7.41;100.00;97286.41;105260;1268;70469;-72
2022/04/07 01:25:29;;;;;;;82.30;70.20;;;;;;;7.42;100.00;97287.75;105291;1268;62457;-71
2022/04/07 01:27:56;;;;;;;82.80;68.70;;;;;;;7.40;100.00;97284.54;105268;1268;62219;-71
2022/04/07 01:30:22;;;;;;;87.70;70.10;;;;;;;7.40;100.00;97285.12;104981;1268;62060;-71
2022/04/07 01:32:56;;;;;;;86.50;67.20;;;;;;;7.40;100.00;97284.42;105260;1268;76109;-71
2022/04/07 01:35:23;;;;;;;87.50;71.80;;;;;;;7.38;100.00;97277.65;105433;1268;69415;-71
2022/04/07 01:37:52;;;;;;;82.00;68.30;;;;;;;7.38;100.00;97274.66;105287;1268;75117;-71
2022/04/07 01:40:23;;;;;;;82.60;68.10;;;;;;;7.39;100.00;97276.46;105392;1268;62116;-71
2022/04/07 01:42:53;;;;;;;87.50;69.00;;;;;;;7.41;100.00;97274.41;105251;1268;62094;-72
2022/04/07 01:45:20;;;;;;;85.70;67.20;;;;;;;7.42;100.00;97278.58;105556;1268;76186;-72
2022/04/07 01:47:49;;;;;;;83.20;66.30;;;;;;;7.42;100.00;97278.71;105353;1268;69285;-72
2022/04/07 01:50:19;;;;;;;75.20;60.50;;;;;;;7.41;100.00;97273.88;105360;1268;74240;-72
2022/04/07 01:52:47;;;;;;;79.70;62.30;;;;;;;7.43;100.00;97271.93;105326;1268;62103;-71
2022/04/07 01:55:18;;;;;;;78.00;62.40;;;;;;;7.44;100.00;97272.34;105450;1268;62071;-71
2022/04/07 01:57:45;;;;;;;81.30;65.10;;;;;;;7.44;100.00;97273.81;105558;1268;75978;-71
2022/04/07 04:36:57;;;;;;;10.90;7.20;;;;;;;9.21;100.00;97222.35;105262;1271;78948;-72
2022/04/07 04:39:24;;;;;;;7.50;5.70;;;;;;;9.27;100.00;97222.89;105153;1271;69226;-71
2022/04/07 04:41:50;;;;;;;7.80;5.80;;;;;;;9.33;100.00;97219.38;105286;1271;73426;-72
2022/04/07 04:44:17;;;;;;;7.50;5.80;;;;;;;9.41;100.00;97218.82;105270;1271;62184;-71
2022/04/07 04:46:43;;;;;;;7.70;5.10;;;;;;;9.49;100.00;97216.50;105133;1271;62079;-72
2022/04/07 04:49:10;;;;;;;8.50;5.10;;;;;;;9.57;100.00;97219.64;105257;1271;62072;-73
2022/04/07 04:51:36;;;;;;;8.60;5.50;;;;;;;9.64;100.00;97217.09;105292;1271;62160;-72
2022/04/07 04:54:03;;;;;;;8.00;5.90;;;;;;;9.69;100.00;97220.00;105247;1271;62141;-72
2022/04/07 04:56:30;;;;;;;7.70;5.30;;;;;;;9.73;100.00;97213.45;105266;1271;62113;-72
2022/04/07 04:58:57;;;;;;;7.10;5.60;;;;;;;9.75;100.00;97216.64;105301;1271;61960;-71
2022/04/07 05:01:24;;;;;;;8.50;5.60;;;;;;;9.76;100.00;97215.06;105303;1271;77413;-71
2022/04/07 05:03:51;;;;;;;9.90;5.60;;;;;;;9.79;100.00;97213.77;105286;1272;69254;-72
2022/04/07 05:06:17;;;;;;;7.90;6.00;;;;;;;9.80;100.00;97216.33;105199;1271;62082;-71
2022/04/07 05:08:43;;;;;;;7.40;5.50;;;;;;;9.79;100.00;97220.64;105234;1271;62212;-73
2022/04/07 05:11:10;;;;;;;7.50;5.40;;;;;;;9.79;100.00;97215.67;105247;1271;62029;-73
2022/04/07 05:13:36;;;;;;;6.80;4.90;;;;;;;9.80;100.00;97213.86;105247;1271;62110;-73
2022/04/07 05:16:03;;;;;;;7.80;5.60;;;;;;;9.81;100.00;97215.11;105221;1271;62141;-72
2022/04/07 05:18:30;;;;;;;8.50;5.30;;;;;;;9.84;100.00;97219.31;105209;1271;74734;-71
2022/04/07 05:20:56;;;;;;;9.40;6.10;;;;;;;9.86;100.00;97222.99;105063;1271;62145;-72
2022/04/07 05:23:23;;;;;;;11.10;6.00;;;;;;;9.88;100.00;97222.09;105185;1271;62043;-72
2022/04/07 05:25:49;;;;;;;11.50;7.30;;;;;;;9.91;100.00;97226.88;104938;1271;62196;-71
2022/04/07 05:28:16;;;;;;;14.90;9.90;;;;;;;9.94;100.00;97226.20;105244;1271;62108;-72
2022/04/07 05:30:42;;;;;;;12.20;10.30;;;;;;;10.01;100.00;97221.84;105201;1271;62191;-69
2022/04/07 05:33:09;;;;;;;13.20;10.30;;;;;;;10.12;100.00;97222.02;105224;1271;62268;-71
2022/04/07 05:35:35;;;;;;;10.00;7.30;;;;;;;10.27;100.00;97224.77;105210;1271;62157;-72
2022/04/07 05:38:04;;;;;;;5.40;3.90;;;;;;;10.59;100.00;97220.65;105343;1271;76217;-80
2022/04/07 05:40:31;;;;;;;4.00;3.40;;;;;;;11.04;100.00;97218.48;105263;1274;67553;-72
2022/04/07 05:42:59;;;;;;;3.40;2.90;;;;;;;11.46;100.00;97215.23;104948;1270;72634;-74
2022/04/07 05:45:25;;;;;;;3.20;2.70;;;;;;;12.01;100.00;97208.30;105413;1271;62111;-71
2022/04/07 05:47:52;;;;;;;5.40;3.30;;;;;;;12.63;100.00;97207.89;105326;1271;62063;-77
2022/04/07 05:50:18;;;;;;;6.90;3.40;;;;;;;13.26;99.86;97206.81;105263;1271;62053;-78
2022/04/07 05:52:45;;;;;;;3.90;3.10;;;;;;;13.79;98.76;97199.68;105286;1271;70069;-80
2022/04/07 05:55:12;;;;;;;5.10;3.00;;;;;;;14.32;97.91;97196.13;105378;1274;73588;-72
2022/04/07 05:57:38;;;;;;;3.40;2.30;;;;;;;14.92;96.03;97187.14;105268;1271;62168;-72
2022/04/07 06:00:12;;;;;;;3.30;2.10;;;;;;;15.31;94.83;97176.26;105219;1271;62090;-73
2022/04/07 06:02:42;;;;;;;3.10;2.10;;;;;;;15.44;93.80;97173.05;105267;1271;77304;-73
2022/04/07 06:05:09;;;;;;;5.20;3.10;;;;;;;15.65;92.40;97172.57;105038;1271;68588;-72
2022/04/07 06:07:38;;;;;;;4.70;2.90;;;;;;;15.96;90.91;97168.48;105396;1271;71594;-72
2022/04/07 06:10:06;;;;;;;4.80;3.40;;;;;;;16.08;90.17;97164.70;105312;1271;62177;-73
2022/04/07 06:12:33;;;;;;;3.90;3.00;;;;;;;16.25;89.05;97164.88;105309;1271;62676;-72
2022/04/07 06:14:59;;;;;;;4.90;4.40;;;;;;;16.26;88.45;97166.52;105249;1271;75864;-72
2022/04/07 06:17:41;;;;;;;4.80;3.10;;;;;;;16.07;88.45;97162.84;105195;1271;62127;-72
2022/04/07 06:20:12;;;;;;;4.60;3.20;;;;;;;15.85;87.78;97160.95;105226;1271;72655;-72
2022/04/07 06:22:39;;;;;;;3.00;2.50;;;;;;;15.63;87.47;97158.21;104910;1271;62370;-72
2022/04/07 06:25:07;;;;;;;4.90;3.00;;;;;;;15.34;86.87;97159.55;105219;1271;62087;-72
2022/04/07 06:27:37;;;;;;;3.80;2.90;;;;;;;15.13;87.06;97163.10;105267;1271;76803;-72
2022/04/07 06:30:06;;;;;;;3.80;2.90;;;;;;;14.92;85.93;97165.05;105215;1269;68390;-73
2022/04/07 06:32:33;;;;;;;4.10;2.90;;;;;;;14.74;86.23;97171.31;105237;1270;73174;-73
2022/04/07 06:34:59;;;;;;;4.10;2.80;;;;;;;14.58;86.32;97179.20;104951;1274;62204;-72
2022/04/07 06:37:27;;;;;;;4.30;2.90;;;;;;;14.47;86.34;97174.95;105230;1271;62069;-73
2022/04/07 06:40:04;;;;;;;5.50;2.80;;;;;;;14.34;85.55;97171.94;105010;1272;75683;-73
2022/04/07 06:42:30;;;;;;;3.80;2.90;;;;;;;14.18;85.75;97173.33;105039;1271;69472;-73
2022/04/07 06:44:57;;;;;;;4.30;2.90;;;;;;;14.07;85.18;97172.08;105164;1271;62150;-73
2022/04/07 06:47:24;;;;;;;4.80;3.10;;;;;;;14.00;84.69;97164.86;105198;1271;62068;-72
2022/04/07 06:49:51;;;;;;;4.30;2.80;;;;;;;14.00;84.87;97164.25;105203;1271;62065;-71
2022/04/07 06:52:18;;;;;;;4.40;2.90;;;;;;;14.12;84.87;97161.94;105160;1271;76943;-73
2022/04/07 06:54:45;;;;;;;3.80;2.70;;;;;;;14.28;84.84;97165.66;105222;1271;70152;-72
2022/04/07 06:57:12;;;;;;;5.30;2.50;;;;;;;14.46;84.35;97164.98;105218;1271;72610;-73
2022/04/07 06:59:38;;;;;;;4.20;2.50;;;;;;;14.53;83.70;97160.96;105264;1271;62189;-72
2022/04/07 07:02:06;;;;;;;4.90;2.70;;;;;;;14.53;83.47;97163.33;105234;1271;62079;-73
2022/04/07 07:04:33;;;;;;;3.80;2.40;;;;;;;14.50;82.87;97165.70;105209;1271;62168;-72
2022/04/07 07:07:00;;;;;;;4.30;2.30;;;;;;;14.48;82.87;97160.23;104970;1272;70381;-72
2022/04/07 07:09:26;;;;;;;3.50;2.30;;;;;;;14.49;82.73;97164.52;105224;1271;72831;-74
2022/04/07 07:11:53;;;;;;;3.50;2.70;;;;;;;14.50;81.66;97166.80;105238;1269;62123;-72
2022/04/07 07:14:19;;;;;;;2.80;2.20;;;;;;;14.55;81.63;97163.44;105230;1271;62169;-72
2022/04/07 07:16:47;;;;;;;2.90;2.40;;;;;;;14.63;81.15;97168.70;105194;1269;62105;-72
2022/04/07 07:19:16;;;;;;;2.60;2.00;;;;;;;14.76;80.29;97156.09;105238;1271;69560;-71
2022/04/07 07:21:42;;;;;;;2.70;1.90;;;;;;;14.89;80.89;97163.46;105264;1271;74324;-73
2022/04/07 07:24:09;;;;;;;3.00;2.50;;;;;;;15.08;80.70;97160.02;105215;1269;62191;-72
2022/04/07 07:26:35;;;;;;;4.50;2.50;;;;;;;15.23;80.20;97156.00;105253;1271;62081;-73
2022/04/07 07:29:02;;;;;;;3.30;2.60;;;;;;;15.40;80.43;97156.44;105225;1269;62255;-72
2022/04/07 07:31:30;;;;;;;2.30;2.10;;;;;;;15.54;79.57;97153.11;105222;1270;62092;-72
2022/04/07 07:33:57;;;;;;;2.80;1.80;;;;;;;15.63;79.03;97149.21;105222;1271;73482;-71
2022/04/07 07:36:23;;;;;;;1.80;1.70;;;;;;;15.69;78.01;97146.78;105216;1271;62191;-71
2022/04/07 07:38:50;;;;;;;2.50;1.70;;;;;;;15.68;77.29;97151.54;105202;1271;62110;-72
2022/04/07 07:41:17;;;;;;;2.80;2.00;;;;;;;15.59;76.30;97156.15;105236;1270;76656;-73
2022/04/07 07:43:43;;;;;;;2.70;1.80;;;;;;;15.48;76.57;97158.83;105223;1271;62174;-72
2022/04/07 07:46:10;;;;;;;2.60;2.40;;;;;;;15.44;76.69;97158.08;105208;1271;62190;-72
2022/04/07 07:48:36;;;;;;;3.10;2.10;;;;;;;15.55;77.56;97160.52;105237;1271;62064;-72
2022/04/07 07:51:03;;;;;;;4.00;2.20;;;;;;;15.80;77.88;97159.30;105232;1271;61265;-72
2022/04/07 07:53:29;;;;;;;3.80;2.20;;;;;;;15.93;77.18;97157.86;105274;1271;74375;-73
2022/04/07 07:55:56;;;;;;;3.30;1.80;;;;;;;15.89;76.17;97158.94;105265;1271;69056;-71
2022/04/07 07:58:24;;;;;;;3.30;2.50;;;;;;;15.77;75.81;97157.48;105258;1271;71449;-73
2022/04/07 08:00:51;;;;;;;3.70;2.00;;;;;;;15.66;76.46;97160.30;105220;1271;62075;-73
2022/04/07 08:03:18;;;;;;;3.30;2.10;;;;;;;15.64;76.49;97161.46;105289;1269;62053;-72
2022/04/07 08:05:44;;;;;;;2.10;1.70;;;;;;;15.68;76.11;97156.21;104987;1271;75907;-73
2022/04/07 08:08:11;;;;;;;2.20;1.30;;;;;;;15.74;75.78;97159.56;105233;1271;62141;-73
2022/04/07 08:10:38;;;;;;;0.90;0.80;;;;;;;15.83;75.57;97158.92;105019;1271;73762;-74
2022/04/07 08:13:05;;;;;;;1.10;0.80;;;;;;;15.90;74.51;97155.44;105260;1271;61961;-73
2022/04/07 08:15:33;;;;;;;1.20;0.80;;;;;;;15.90;71.84;97158.67;105233;1271;62428;-74
2022/04/07 08:18:00;;;;;;;1.40;1.00;;;;;;;15.80;71.07;97161.10;105384;1271;76757;-73
2022/04/07 08:20:26;;;;;;;2.10;1.20;;;;;;;15.76;72.51;97160.92;105197;1271;69916;-73
2022/04/07 08:22:53;;;;;;;2.30;1.30;;;;;;;15.79;72.27;97162.71;105157;1271;74552;-74
2022/04/07 08:25:19;;;;;;;3.30;1.40;;;;;;;15.78;72.14;97162.14;105237;1271;62410;-73
2022/04/07 08:27:46;;;;;;;2.20;1.90;;;;;;;15.73;72.35;97164.17;105275;1271;61959;-73
2022/04/07 08:30:13;;;;;;;1.90;1.50;;;;;;;15.68;72.88;97165.88;105267;1270;75856;-73
2022/04/07 08:32:40;;;;;;;5.10;3.20;;;;;;;15.69;72.89;97170.95;105292;1271;70379;-74
2022/04/07 08:35:09;;;;;;;3.50;1.90;;;;;;;15.75;72.55;97169.45;105074;1271;73186;-74
2022/04/07 08:37:37;;;;;;;4.80;1.70;;;;;;;15.83;72.72;97164.21;105030;1271;62505;-72
2022/04/07 08:40:07;;;;;;;2.20;1.50;;;;;;;15.97;73.00;97163.13;105288;1271;61953;-73
2022/04/07 08:42:35;;;;;;;1.80;1.70;;;;;;;16.12;72.80;97161.69;105251;1271;76128;-73
2022/04/07 08:45:02;;;;;;;3.10;2.00;;;;;;;16.24;72.43;97154.17;105356;1270;69655;-73
2022/04/07 08:47:31;;;;;;;3.70;1.80;;;;;;;16.39;72.43;97156.61;105121;1269;73238;-72
2022/04/07 08:50:01;;;;;;;1.80;1.30;;;;;;;16.55;72.11;97150.68;105300;1271;62145;-73
2022/04/07 08:52:28;;;;;;;2.90;1.50;;;;;;;16.71;71.91;97152.71;105289;1271;62160;-72
2022/04/07 08:54:54;;;;;;;3.60;1.80;;;;;;;16.78;71.42;97150.73;104992;1273;62210;-75
2022/04/07 08:57:23;;;;;;;2.50;2.10;;;;;;;16.73;70.27;97151.88;105237;1271;62091;-71
2022/04/07 08:59:49;;;;;;;2.10;1.90;;;;;;;16.63;70.61;97149.64;105281;1271;74091;-72
2022/04/07 09:02:16;;;;;;;2.20;1.60;;;;;;;16.54;70.20;97151.50;105217;1271;62183;-72
2022/04/07 09:04:42;;;;;;;1.60;1.30;;;;;;;16.40;70.00;97148.39;104989;1271;62017;-73
2022/04/07 09:07:12;;;;;;;3.40;1.90;;;;;;;16.25;69.96;97148.15;105216;1271;62084;-72
2022/04/07 09:09:39;;;;;;;2.10;1.90;;;;;;;16.15;70.64;97144.27;105245;1271;70234;-72
2022/04/07 09:12:07;;;;;;;1.70;1.40;;;;;;;16.12;71.09;97138.94;105219;1271;74405;-73
2022/04/07 09:14:35;;;;;;;2.20;1.40;;;;;;;16.12;71.34;97133.02;105270;1271;62069;-72
2022/04/07 09:17:02;;;;;;;2.50;2.00;;;;;;;16.18;71.87;97131.66;105251;1271;61963;-73
2022/04/07 09:19:30;;;;;;;5.20;1.90;;;;;;;16.29;71.70;97128.02;104978;1271;76542;-72
2022/04/07 09:22:09;;;;;;;2.00;1.50;;;;;;;16.30;71.36;97126.26;105181;1270;69487;-73
2022/04/07 09:24:38;;;;;;;2.10;1.90;;;;;;;16.31;71.37;97125.83;105310;1271;73463;-71
2022/04/07 09:27:06;;;;;;;2.80;1.80;;;;;;;16.29;71.50;97117.10;105295;1271;62190;-72
2022/04/07 09:29:41;;;;;;;2.90;1.40;;;;;;;16.31;71.08;97110.41;105409;1271;62126;-73
2022/04/07 09:32:22;;;;;;;1.90;1.50;;;;;;;16.26;71.16;97108.29;104987;1271;76188;-73
2022/04/07 09:34:56;;;;;;;3.70;2.00;;;;;;;16.15;70.57;97100.60;105288;1271;69304;-73
2022/04/07 09:37:25;;;;;;;2.50;2.30;;;;;;;16.13;71.16;97095.20;105263;1271;72143;-72
2022/04/07 09:40:25;;;;;;;2.30;2.10;;;;;;;16.18;71.59;97093.91;105303;1271;62207;-72
2022/04/07 09:42:58;;;;;;;1.90;1.30;;;;;;;16.33;71.70;97087.38;104581;1277;62188;-71
2022/04/07 09:45:25;;;;;;;1.40;1.30;;;;;;;16.50;71.13;97090.30;104529;1277;77245;-72
2022/04/07 09:47:53;;;;;;;3.50;1.30;;;;;;;16.70;70.88;97084.84;104489;1280;69280;-71
2022/04/07 09:50:20;;;;;;;1.80;1.10;;;;;;;16.79;69.73;97081.04;104543;1277;74105;-71
2022/04/07 09:53:04;;;;;;;2.00;1.40;;;;;;;16.62;69.96;97077.79;104488;1279;62090;-72
2022/04/07 09:55:36;;;;;;;1.20;1.00;;;;;;;16.45;70.03;97077.25;104602;1277;62247;-73
2022/04/07 09:58:04;;;;;;;0.80;0.80;;;;;;;16.45;69.91;97069.97;104464;1278;76047;-72
2022/04/07 10:00:31;;;;;;;1.90;0.80;;;;;;;16.62;69.67;97062.52;104534;1277;69247;-72
2022/04/07 10:02:58;;;;;;;1.40;1.00;;;;;;;16.76;69.25;97058.10;104473;1279;73211;-73
2022/04/07 10:05:25;;;;;;;1.20;1.10;;;;;;;16.81;69.07;97050.83;104587;1277;62262;-72
2022/04/07 10:07:52;;;;;;;1.20;0.90;;;;;;;16.88;69.01;97048.74;104598;1277;62101;-74
2022/04/07 10:10:19;;;;;;;0.90;0.90;;;;;;;16.90;67.73;97047.23;104542;1279;76881;-73
2022/04/07 10:12:46;;;;;;;1.20;1.10;;;;;;;16.88;68.86;97037.65;104758;1277;69616;-72
2022/04/07 10:15:14;;;;;;;1.00;0.70;;;;;;;17.06;68.66;97027.19;104312;1278;71491;-73
2022/04/07 10:17:41;;;;;;;1.30;1.10;;;;;;;17.24;68.39;97020.78;104736;1277;62297;-73
2022/04/07 10:20:11;;;;;;;2.10;0.90;;;;;;;17.39;68.55;97020.16;105224;1271;62062;-71
2022/04/07 10:22:45;;;;;;;;;;;;;;;17.55;67.74;97018.26;105375;1271;77490;-72
2022/04/07 10:25:13;;;;;;;1.00;0.90;;;;;;;17.57;66.44;97016.79;105346;1270;69210;-72
2022/04/07 10:27:44;;;;;;;0.80;0.70;;;;;;;17.57;66.22;97011.36;105637;1271;72812;-73
2022/04/07 10:30:13;;;;;;;1.10;0.80;;;;;;;17.61;65.73;97013.17;105296;1271;62072;-72
2022/04/07 10:32:43;;;;;;;1.70;0.70;;;;;;;17.66;66.25;97007.23;105059;1271;63573;-73
2022/04/07 10:35:28;;;;;;;2.90;0.90;;;;;;;17.78;65.99;97003.11;105148;1270;76014;-74
2022/04/07 10:37:56;;;;;;;1.40;0.90;;;;;;;17.88;66.41;96994.33;105456;1268;69246;-70
2022/04/07 10:40:50;;;;;;;0.90;0.80;;;;;;;17.98;65.65;96995.47;105290;1268;72288;-72
2022/04/07 10:43:27;;;;;;;1.10;1.00;;;;;;;18.11;65.18;96987.77;105300;1268;62412;-73
2022/04/07 10:46:05;;;;;;;1.70;0.80;;;;;;;18.13;65.20;96978.61;105317;1268;62062;-71
2022/04/07 10:48:33;;;;;;;3.50;1.50;;;;;;;18.09;64.13;96982.41;105340;1268;76003;-73
2022/04/07 10:51:05;;;;;;;1.50;1.30;;;;;;;18.02;64.11;96982.21;105324;1268;70445;-73
2022/04/07 10:53:34;;;;;;;3.70;1.50;;;;;;;18.00;64.11;96968.68;105291;1268;74374;-72
2022/04/07 10:56:23;;;;;;;2.60;1.70;;;;;;;18.03;63.38;96975.09;105476;1268;62210;-73
2022/04/07 10:58:55;;;;;;;1.40;1.30;;;;;;;17.98;61.34;96970.88;105293;1268;62297;-72
2022/04/07 11:01:41;;;;;;;1.80;1.40;;;;;;;18.02;61.00;96966.21;105334;1267;76577;-72
2022/04/07 11:04:20;;;;;;;2.10;1.60;;;;;;;18.23;61.93;96963.61;104695;1276;70254;-72
2022/04/07 11:07:05;;;;;;;1.90;1.60;;;;;;;18.35;60.03;96959.30;104631;1278;74634;-73
2022/04/07 11:09:49;;;;;;;2.00;1.80;;;;;;;18.45;59.28;96955.96;104664;1276;62165;-72
2022/04/07 11:12:34;;;;;;;5.00;1.70;;;;;;;18.55;59.01;96944.88;104699;1277;62185;-74
2022/04/07 11:15:00;;;;;;;2.80;2.00;;;;;;;18.66;59.13;96947.64;104655;1276;75915;-73
2022/04/07 11:17:31;;;;;;;2.00;1.80;;;;;;;18.81;59.25;96945.29;104651;1276;62159;-72
2022/04/07 11:20:19;;;;;;;2.20;2.00;;;;;;;18.93;57.51;96942.23;104612;1276;73667;-72
2022/04/07 11:22:50;;;;;;;2.00;1.80;;;;;;;18.93;56.40;96939.66;104793;1277;62315;-73
2022/04/07 11:25:32;;;;;;;2.40;2.00;;;;;;;18.93;56.60;96938.17;104995;1276;62179;-72
2022/04/07 11:28:15;;;;;;;2.10;1.70;;;;;;;19.04;56.20;96939.93;104839;1277;77106;-72
2022/04/07 11:30:49;;;;;;;2.70;1.80;;;;;;;19.16;56.27;96935.36;104849;1274;69234;-74
2022/04/07 11:33:25;;;;;;;2.70;1.70;;;;;;;19.39;56.78;96930.28;104896;1276;72679;-73
2022/04/07 11:35:58;;;;;;;1.80;1.20;;;;;;;19.71;56.00;96934.20;104812;1276;62088;-72
2022/04/07 11:38:29;;;;;;;1.20;1.10;;;;;;;19.92;54.70;96930.96;104875;1277;62104;-72
2022/04/07 11:41:07;;;;;;;1.70;1.60;;;;;;;19.90;53.08;96930.13;104916;1268;76036;-72
2022/04/07 11:43:37;;;;;;;2.40;1.60;;;;;;;19.77;52.54;96928.71;105315;1267;68869;-72
2022/04/07 11:46:04;;;;;;;1.50;1.30;;;;;;;19.64;52.72;96922.32;105435;1268;74371;-72
2022/04/07 11:48:35;;;;;;;1.80;1.30;;;;;;;19.68;52.83;96905.78;105280;1268;62135;-72
2022/04/07 11:51:11;;;;;;;1.60;1.50;;;;;;;19.64;52.06;96898.33;105349;1268;62075;-72
2022/04/07 11:53:39;;;;;;;2.40;1.60;;;;;;;19.60;52.78;96902.15;105277;1268;76120;-73
2022/04/07 11:56:17;;;;;;;1.70;1.10;;;;;;;19.72;52.42;96889.05;105304;1267;70177;-71
2022/04/07 11:58:48;;;;;;;2.00;1.50;;;;;;;19.92;52.06;96886.09;105128;1268;71325;-72
2022/04/07 12:01:15;;;;;;;1.50;1.00;;;;;;;20.11;50.37;96889.75;105302;1268;62154;-73
2022/04/07 12:03:42;;;;;;;1.20;1.10;;;;;;;20.12;50.05;96888.66;105335;1268;62065;-72
2022/04/07 12:06:09;;;;;;;1.00;0.90;;;;;;;20.04;49.76;96887.29;105306;1268;62214;-72
2022/04/07 12:08:36;;;;;;;1.60;1.20;;;;;;;19.81;48.87;96887.95;105304;1268;69382;-72
2022/04/07 12:11:05;;;;;;;1.50;1.20;;;;;;;19.68;48.71;96882.54;105114;1268;62072;-72
2022/04/07 12:13:33;;;;;;;2.50;1.40;;;;;;;19.62;48.60;96890.96;105261;1268;62060;-73
2022/04/07 12:16:01;;;;;;;1.20;1.10;;;;;;;19.49;48.35;96896.86;105293;1268;62135;-72
2022/04/07 12:18:29;;;;;;;1.60;1.50;;;;;;;19.25;48.27;96889.12;105267;1268;75675;-72
2022/04/07 12:21:02;;;;;;;1.70;1.60;;;;;;;18.99;49.11;96885.05;105283;1268;69417;-73
2022/04/07 12:23:29;;;;;;;4.60;1.60;;;;;;;18.93;49.37;96885.81;105281;1268;74347;-72
2022/04/07 12:26:01;;;;;;;2.20;1.60;;;;;;;18.95;49.67;96880.03;105285;1268;62123;-73
2022/04/07 12:28:39;;;;;;;1.40;1.30;;;;;;;19.01;50.06;96869.36;105532;1268;62010;-71
2022/04/07 12:31:20;;;;;;;1.40;1.30;;;;;;;18.97;50.27;96865.22;105324;1268;76968;-72
2022/04/07 12:33:48;;;;;;;1.60;1.50;;;;;;;18.88;50.30;96856.16;105312;1268;68741;-73
2022/04/07 12:36:37;;;;;;;2.30;1.70;;;;;;;18.78;50.64;96845.95;105360;1268;73310;-72
2022/04/07 12:39:08;;;;;;;1.80;1.70;;;;;;;18.67;50.03;96837.52;105324;1267;62143;-72
2022/04/07 12:41:44;;;;;;;3.20;1.80;;;;;;;18.55;50.32;96828.72;105509;1268;62094;-72
2022/04/07 12:44:17;;;;;;;1.70;1.50;;;;;;;18.55;50.52;96824.42;105509;1268;76151;-72
2022/04/07 12:46:49;;;;;;;2.10;2.00;;;;;;;18.54;50.66;96816.89;105380;1268;69994;-74
2022/04/07 12:49:23;;;;;;;2.00;1.80;;;;;;;18.51;50.38;96812.80;105333;1268;72751;-72
2022/04/07 12:52:01;;;;;;;2.50;1.80;;;;;;;18.52;50.71;96803.43;105394;1268;62180;-73
2022/04/07 12:54:29;;;;;;;2.80;2.30;;;;;;;18.57;50.34;96796.64;105488;1268;62181;-74
2022/04/07 12:57:13;;;;;;;2.60;2.20;;;;;;;18.61;50.76;96791.06;104953;1268;285066;-72
2022/04/07 12:59:54;;;;;;;2.70;2.40;;;;;;;18.64;50.64;96786.21;105369;1268;69493;-73
2022/04/07 13:02:21;;;;;;;3.40;2.80;;;;;;;18.63;50.59;96772.80;105424;1268;73943;-73
2022/04/07 13:04:49;;;;;;;2.70;2.30;;;;;;;18.64;50.63;96769.83;105369;1268;62154;-72
2022/04/07 13:07:17;;;;;;;4.30;2.80;;;;;;;18.65;50.19;96772.10;105451;1267;62183;-72
2022/04/07 13:09:46;;;;;;;2.20;1.90;;;;;;;18.64;49.41;96772.89;105363;1268;75548;-71
2022/04/07 13:12:14;;;;;;;2.90;2.70;;;;;;;18.61;50.21;96767.46;105496;1268;70183;-73
2022/04/07 13:14:45;;;;;;;2.80;2.00;;;;;;;18.67;50.07;96763.51;105384;1268;73590;-72
2022/04/07 13:17:12;;;;;;;2.40;2.00;;;;;;;18.71;48.81;96761.02;105204;1268;62075;-71
2022/04/07 13:19:39;;;;;;;2.40;1.60;;;;;;;18.78;48.83;96754.23;105395;1265;62045;-72
2022/04/07 13:22:07;;;;;;;1.90;1.70;;;;;;;18.96;48.11;96745.11;105456;1268;75947;-72
2022/04/07 13:24:33;;;;;;;2.40;1.80;;;;;;;19.14;48.13;96745.57;105391;1268;71067;-72
2022/04/07 13:27:00;;;;;;;1.70;1.60;;;;;;;19.25;47.23;96743.99;105369;1268;74233;-72
2022/04/07 13:29:27;;;;;;;2.40;1.50;;;;;;;19.29;47.28;96732.75;105360;1268;62206;-73
2022/04/07 13:31:54;;;;;;;1.80;1.70;;;;;;;19.33;47.78;96722.99;105306;1271;62066;-73
2022/04/07 13:34:21;;;;;;;1.80;1.70;;;;;;;19.32;47.33;96713.46;105290;1271;76949;-72
2022/04/07 13:36:48;;;;;;;2.10;1.80;;;;;;;19.25;46.70;96709.80;105062;1271;69258;-73
2022/04/07 13:39:15;;;;;;;2.20;1.90;;;;;;;19.18;46.88;96707.87;105311;1268;72930;-73
2022/04/07 13:41:42;;;;;;;1.60;1.50;;;;;;;18.92;46.78;96706.80;105304;1268;62104;-71
2022/04/07 13:44:09;;;;;;;2.20;1.90;;;;;;;18.70;47.48;96702.33;105044;1271;62049;-72
2022/04/07 13:46:35;;;;;;;2.10;1.30;;;;;;;18.55;47.35;96699.52;105111;1268;62213;-72
2022/04/07 13:49:02;;;;;;;1.80;1.60;;;;;;;18.51;47.25;96685.39;105299;1267;62793;-72
2022/04/07 13:51:28;;;;;;;2.30;1.60;;;;;;;18.50;47.46;96676.13;105329;1268;62175;-73
2022/04/07 13:53:55;;;;;;;2.00;1.80;;;;;;;18.55;47.31;96662.75;105307;1268;62108;-72
2022/04/07 13:56:22;;;;;;;2.40;1.50;;;;;;;18.67;47.48;96662.23;105249;1271;62081;-73
2022/04/07 13:58:49;;;;;;;2.50;1.50;;;;;;;18.77;47.38;96657.30;105313;1268;75944;-72
2022/04/07 14:01:19;;;;;;;2.40;1.90;;;;;;;18.83;46.67;96650.05;105275;1268;69228;-72
2022/04/07 14:03:45;;;;;;;2.40;1.60;;;;;;;18.88;46.61;96647.64;105264;1268;73293;-73
2022/04/07 14:06:12;;;;;;;2.30;1.30;;;;;;;18.88;46.68;96637.46;105288;1268;62074;-72
2022/04/07 14:08:38;;;;;;;1.40;1.30;;;;;;;18.82;45.90;96633.30;105283;1267;62154;-72